sensor_id;sensor_type;location;lat;lon;timestamp;pressure;altitude;pressure_sealevel;temperature;humidity
37068;BME280;22982;42.848;25.468;2023-11-21T00:03:46;96078.59;;;1.05;100.00
37068;BME280;22982;42.848;25.468;2023-11-21T00:08:50;96099.59;;;1.27;100.00
37068;BME280;22982;42.848;25.468;2023-11-21T00:13:52;96095.44;;;1.21;100.00
37068;BME280;22982;42.848;25.468;2023-11-21T00:18:55;96089.25;;;0.94;100.00
37068;BME280;22982;42.848;25.468;2023-11-21T00:23:57;96094.41;;;0.94;100.00
37068;BME280;22982;42.848;25.468;2023-11-21T00:29:00;96077.03;;;0.99;100.00
37068;BME280;22982;42.848;25.468;2023-11-21T00:34:04;96102.75;;;1.04;100.00
37068;BME280;22982;42.848;25.468;2023-11-21T00:39:11;96105.56;;;1.29;100.00
37068;BME280;22982;42.848;25.468;2023-11-21T00:44:14;96116.78;;;1.26;100.00
37068;BME280;22982;42.848;25.468;2023-11-21T00:49:18;96102.06;;;1.30;100.00
37068;BME280;22982;42.848;25.468;2023-11-21T00:54:21;96082.66;;;1.15;100.00
37068;BME280;22982;42.848;25.468;2023-11-21T00:59:24;96098.03;;;1.20;100.00
37068;BME280;22982;42.848;25.468;2023-11-21T01:04:27;96080.97;;;1.14;100.00
37068;BME280;22982;42.848;25.468;2023-11-21T01:09:29;96079.78;;;0.93;100.00
37068;BME280;22982;42.848;25.468;2023-11-21T01:14:35;96072.69;;;1.01;100.00
37068;BME280;22982;42.848;25.468;2023-11-21T01:19:39;96077.22;;;0.93;100.00
37068;BME280;22982;42.848;25.468;2023-11-21T01:24:43;96074.28;;;1.07;100.00
37068;BME280;22982;42.848;25.468;2023-11-21T01:29:46;96074.97;;;1.12;100.00
37068;BME280;22982;42.848;25.468;2023-11-21T01:34:50;96085.09;;;1.21;100.00
37068;BME280;22982;42.848;25.468;2023-11-21T01:39:54;96079.28;;;1.13;100.00
37068;BME280;22982;42.848;25.468;2023-11-21T01:44:58;96093.16;;;1.09;100.00
37068;BME280;22982;42.848;25.468;2023-11-21T01:50:02;96061.03;;;0.86;100.00
37068;BME280;22982;42.848;25.468;2023-11-21T01:55:07;96073.66;;;0.97;100.00
37068;BME280;22982;42.848;25.468;2023-11-21T02:00:13;96067.88;;;0.87;100.00
37068;BME280;22982;42.848;25.468;2023-11-21T02:05:19;96062.72;;;0.87;100.00
37068;BME280;22982;42.848;25.468;2023-11-21T02:10:24;96056.56;;;0.93;100.00
37068;BME280;22982;42.848;25.468;2023-11-21T02:15:27;96082.97;;;1.03;100.00
37068;BME280;22982;42.848;25.468;2023-11-21T02:20:32;96059.00;;;0.98;100.00
37068;BME280;22982;42.848;25.468;2023-11-21T02:25:38;96069.81;;;1.12;100.00
37068;BME280;22982;42.848;25.468;2023-11-21T02:30:41;96068.13;;;1.11;100.00
37068;BME280;22982;42.848;25.468;2023-11-21T02:35:44;96056.38;;;0.99;100.00
37068;BME280;22982;42.848;25.468;2023-11-21T02:40:48;96052.09;;;1.00;100.00
37068;BME280;22982;42.848;25.468;2023-11-21T02:45:51;96057.13;;;1.04;100.00
37068;BME280;22982;42.848;25.468;2023-11-21T02:50:53;96051.22;;;0.99;100.00
37068;BME280;22982;42.848;25.468;2023-11-21T02:55:56;96069.19;;;1.04;100.00
37068;BME280;22982;42.848;25.468;2023-11-21T03:01:00;96062.41;;;1.00;100.00
37068;BME280;22982;42.848;25.468;2023-11-21T03:06:04;96032.94;;;0.74;100.00
37068;BME280;22982;42.848;25.468;2023-11-21T03:11:07;96054.50;;;0.71;100.00
37068;BME280;22982;42.848;25.468;2023-11-21T03:16:10;96064.47;;;0.87;100.00
37068;BME280;22982;42.848;25.468;2023-11-21T03:21:14;96060.13;;;0.89;100.00
37068;BME280;22982;42.848;25.468;2023-11-21T03:26:17;96075.50;;;0.92;100.00
37068;BME280;22982;42.848;25.468;2023-11-21T03:31:20;96065.50;;;0.80;100.00
37068;BME280;22982;42.848;25.468;2023-11-21T03:36:24;96066.41;;;0.77;100.00
37068;BME280;22982;42.848;25.468;2023-11-21T03:41:27;96066.19;;;0.86;100.00
37068;BME280;22982;42.848;25.468;2023-11-21T03:46:31;96055.31;;;0.73;100.00
37068;BME280;22982;42.848;25.468;2023-11-21T03:51:33;96038.03;;;0.77;100.00
37068;BME280;22982;42.848;25.468;2023-11-21T03:56:37;96062.16;;;0.76;100.00
37068;BME280;22982;42.848;25.468;2023-11-21T04:01:40;96052.94;;;0.66;100.00
37068;BME280;22982;42.848;25.468;2023-11-21T04:06:43;96066.41;;;0.77;100.00
37068;BME280;22982;42.848;25.468;2023-11-21T04:11:46;96066.34;;;0.80;100.00
37068;BME280;22982;42.848;25.468;2023-11-21T04:16:48;96066.34;;;0.80;100.00
37068;BME280;22982;42.848;25.468;2023-11-21T04:21:52;96062.19;;;0.74;100.00
37068;BME280;22982;42.848;25.468;2023-11-21T04:26:54;96073.28;;;0.78;100.00
37068;BME280;22982;42.848;25.468;2023-11-21T04:31:57;96056.38;;;0.65;100.00
37068;BME280;22982;42.848;25.468;2023-11-21T04:36:59;96079.28;;;0.79;100.00
37068;BME280;22982;42.848;25.468;2023-11-21T04:42:03;96076.44;;;0.89;100.00
37068;BME280;22982;42.848;25.468;2023-11-21T04:47:05;96052.25;;;0.57;100.00
37068;BME280;22982;42.848;25.468;2023-11-21T04:52:08;96069.97;;;0.73;100.00
37068;BME280;22982;42.848;25.468;2023-11-21T04:57:11;96068.69;;;0.89;100.00
37068;BME280;22982;42.848;25.468;2023-11-21T05:02:14;96073.81;;;0.91;100.00
37068;BME280;22982;42.848;25.468;2023-11-21T05:07:36;96072.88;;;0.93;100.00
37068;BME280;22982;42.848;25.468;2023-11-21T05:12:40;96085.44;;;0.73;100.00
37068;BME280;22982;42.848;25.468;2023-11-21T05:17:44;96072.97;;;0.90;100.00
37068;BME280;22982;42.848;25.468;2023-11-21T05:22:48;96087.47;;;0.96;100.00
37068;BME280;22982;42.848;25.468;2023-11-21T05:27:51;96090.25;;;1.21;100.00
37068;BME280;22982;42.848;25.468;2023-11-21T05:32:55;96100.63;;;1.20;100.00
37068;BME280;22982;42.848;25.468;2023-11-21T05:37:58;96107.13;;;1.34;100.00
37068;BME280;22982;42.848;25.468;2023-11-21T05:43:00;96112.59;;;1.55;100.00
37068;BME280;22982;42.848;25.468;2023-11-21T05:48:04;96099.97;;;1.44;100.00
37068;BME280;22982;42.848;25.468;2023-11-21T05:53:07;96098.81;;;1.55;100.00
37068;BME280;22982;42.848;25.468;2023-11-21T05:58:09;96093.19;;;1.71;100.00
37068;BME280;22982;42.848;25.468;2023-11-21T06:03:12;96093.44;;;1.94;100.00
37068;BME280;22982;42.848;25.468;2023-11-21T06:08:15;96082.91;;;2.00;100.00
37068;BME280;22982;42.848;25.468;2023-11-21T06:13:19;96090.72;;;2.26;100.00
37068;BME280;22982;42.848;25.468;2023-11-21T06:18:26;96077.75;;;2.28;100.00
37068;BME280;22982;42.848;25.468;2023-11-21T06:23:29;96085.66;;;2.52;100.00
37068;BME280;22982;42.848;25.468;2023-11-21T06:28:31;96066.19;;;2.66;100.00
37068;BME280;22982;42.848;25.468;2023-11-21T06:33:34;96066.19;;;3.18;100.00
37068;BME280;22982;42.848;25.468;2023-11-21T06:38:37;96069.63;;;3.68;100.00
37068;BME280;22982;42.848;25.468;2023-11-21T06:43:39;96060.38;;;3.60;100.00
37068;BME280;22982;42.848;25.468;2023-11-21T06:48:43;96055.13;;;4.31;100.00
37068;BME280;22982;42.848;25.468;2023-11-21T06:53:46;96047.97;;;4.80;100.00
37068;BME280;22982;42.848;25.468;2023-11-21T06:58:48;96041.22;;;5.59;100.00
37068;BME280;22982;42.848;25.468;2023-11-21T07:03:52;96039.19;;;5.65;100.00
37068;BME280;22982;42.848;25.468;2023-11-21T07:08:54;96008.88;;;5.83;100.00
37068;BME280;22982;42.848;25.468;2023-11-21T07:13:58;96015.78;;;9.05;100.00
37068;BME280;22982;42.848;25.468;2023-11-21T07:19:00;96018.91;;;10.41;100.00
37068;BME280;22982;42.848;25.468;2023-11-21T07:24:04;96017.44;;;12.33;92.92
37068;BME280;22982;42.848;25.468;2023-11-21T07:29:06;96014.75;;;12.09;90.63
37068;BME280;22982;42.848;25.468;2023-11-21T07:34:10;95999.59;;;12.25;89.79
37068;BME280;22982;42.848;25.468;2023-11-21T07:39:14;96010.16;;;11.48;100.00
37068;BME280;22982;42.848;25.468;2023-11-21T07:44:18;96015.00;;;11.80;100.00
37068;BME280;22982;42.848;25.468;2023-11-21T07:49:23;96012.72;;;10.97;100.00
37068;BME280;22982;42.848;25.468;2023-11-21T07:54:26;95991.50;;;10.60;100.00
37068;BME280;22982;42.848;25.468;2023-11-21T07:59:30;95981.47;;;12.57;100.00
37068;BME280;22982;42.848;25.468;2023-11-21T08:04:33;95948.53;;;14.90;74.08
37068;BME280;22982;42.848;25.468;2023-11-21T08:09:36;95946.94;;;15.41;63.25
37068;BME280;22982;42.848;25.468;2023-11-21T08:14:38;95946.09;;;16.43;60.33
37068;BME280;22982;42.848;25.468;2023-11-21T08:19:43;95922.44;;;16.80;58.60
37068;BME280;22982;42.848;25.468;2023-11-21T08:24:46;95936.78;;;16.68;58.67
37068;BME280;22982;42.848;25.468;2023-11-21T08:29:50;95933.09;;;16.20;58.77
37068;BME280;22982;42.848;25.468;2023-11-21T08:34:52;95953.50;;;17.94;53.09
37068;BME280;22982;42.848;25.468;2023-11-21T08:40:00;95913.47;;;18.79;49.36
37068;BME280;22982;42.848;25.468;2023-11-21T08:45:02;95908.94;;;19.33;47.28
37068;BME280;22982;42.848;25.468;2023-11-21T08:50:07;95908.16;;;19.93;45.04
37068;BME280;22982;42.848;25.468;2023-11-21T08:55:09;95907.25;;;20.19;43.81
37068;BME280;22982;42.848;25.468;2023-11-21T09:00:14;95905.25;;;19.52;40.52
37068;BME280;22982;42.848;25.468;2023-11-21T09:05:19;95880.06;;;19.99;37.90
37068;BME280;22982;42.848;25.468;2023-11-21T09:10:22;95863.34;;;20.15;35.76
37068;BME280;22982;42.848;25.468;2023-11-21T09:15:27;95898.69;;;19.73;35.06
37068;BME280;22982;42.848;25.468;2023-11-21T09:20:32;95888.50;;;19.60;34.92
37068;BME280;22982;42.848;25.468;2023-11-21T09:25:34;95854.41;;;20.49;34.30
37068;BME280;22982;42.848;25.468;2023-11-21T09:30:39;95855.47;;;20.89;33.03
37068;BME280;22982;42.848;25.468;2023-11-21T09:35:42;95868.19;;;20.36;33.22
37068;BME280;22982;42.848;25.468;2023-11-21T09:40:46;95828.00;;;19.96;34.27
37068;BME280;22982;42.848;25.468;2023-11-21T09:45:59;95825.16;;;19.89;34.53
37068;BME280;22982;42.848;25.468;2023-11-21T09:51:04;95815.50;;;20.89;34.05
37068;BME280;22982;42.848;25.468;2023-11-21T09:56:06;95834.25;;;21.45;33.11
37068;BME280;22982;42.848;25.468;2023-11-21T10:01:11;95792.50;;;21.12;32.76
37068;BME280;22982;42.848;25.468;2023-11-21T10:06:17;95773.31;;;20.02;35.19
37068;BME280;22982;42.848;25.468;2023-11-21T10:11:20;95799.06;;;20.01;36.00
37068;BME280;22982;42.848;25.468;2023-11-21T10:16:27;95794.53;;;19.43;35.04
37068;BME280;22982;42.848;25.468;2023-11-21T10:21:30;95782.06;;;19.78;34.93
37068;BME280;22982;42.848;25.468;2023-11-21T10:26:33;95771.44;;;21.34;33.09
37068;BME280;22982;42.848;25.468;2023-11-21T10:31:52;95782.84;;;20.37;34.56
37068;BME280;22982;42.848;25.468;2023-11-21T10:36:57;95762.84;;;20.58;35.08
37068;BME280;22982;42.848;25.468;2023-11-21T10:42:00;95759.53;;;20.31;35.60
37068;BME280;22982;42.848;25.468;2023-11-21T10:47:03;95744.63;;;19.02;37.87
37068;BME280;22982;42.848;25.468;2023-11-21T10:52:07;95750.44;;;18.53;39.33
37068;BME280;22982;42.848;25.468;2023-11-21T10:57:10;95736.22;;;18.18;40.52
37068;BME280;22982;42.848;25.468;2023-11-21T11:02:27;95714.63;;;17.95;41.13
37068;BME280;22982;42.848;25.468;2023-11-21T11:07:31;95735.03;;;17.49;42.83
37068;BME280;22982;42.848;25.468;2023-11-21T11:12:37;95720.06;;;17.02;43.94
37068;BME280;22982;42.848;25.468;2023-11-21T11:17:39;95690.50;;;16.60;44.94
37068;BME280;22982;42.848;25.468;2023-11-21T11:22:55;95699.97;;;16.62;45.30
37068;BME280;22982;42.848;25.468;2023-11-21T11:28:07;95699.72;;;16.46;45.68
37068;BME280;22982;42.848;25.468;2023-11-21T11:33:31;95676.81;;;16.07;46.20
37068;BME280;22982;42.848;25.468;2023-11-21T11:38:39;95670.25;;;16.21;45.72
37068;BME280;22982;42.848;25.468;2023-11-21T11:43:49;95670.84;;;16.15;46.88
37068;BME280;22982;42.848;25.468;2023-11-21T11:49:02;95652.34;;;15.96;47.55
37068;BME280;22982;42.848;25.468;2023-11-21T11:54:05;95653.03;;;15.98;47.26
37068;BME280;22982;42.848;25.468;2023-11-21T11:59:09;95675.66;;;16.30;47.31
37068;BME280;22982;42.848;25.468;2023-11-21T12:09:26;95639.19;;;16.23;47.98
37068;BME280;22982;42.848;25.468;2023-11-21T12:14:30;95625.19;;;16.03;47.96
37068;BME280;22982;42.848;25.468;2023-11-21T12:19:33;95622.38;;;16.24;47.81
37068;BME280;22982;42.848;25.468;2023-11-21T12:24:36;95601.56;;;15.82;47.23
37068;BME280;22982;42.848;25.468;2023-11-21T12:29:40;95614.56;;;16.13;47.65
37068;BME280;22982;42.848;25.468;2023-11-21T12:34:44;95627.69;;;15.95;47.49
37068;BME280;22982;42.848;25.468;2023-11-21T12:39:46;95636.28;;;16.17;47.37
37068;BME280;22982;42.848;25.468;2023-11-21T12:45:09;95610.59;;;15.70;48.83
37068;BME280;22982;42.848;25.468;2023-11-21T12:50:20;95581.50;;;15.89;47.40
37068;BME280;22982;42.848;25.468;2023-11-21T12:55:25;95608.91;;;16.08;47.53
37068;BME280;22982;42.848;25.468;2023-11-21T13:00:31;95608.19;;;16.06;48.03
37068;BME280;22982;42.848;25.468;2023-11-21T13:05:35;95621.72;;;15.93;48.28
37068;BME280;22982;42.848;25.468;2023-11-21T13:10:44;95628.09;;;16.00;49.27
37068;BME280;22982;42.848;25.468;2023-11-21T13:16:01;95621.59;;;15.75;50.29
37068;BME280;22982;42.848;25.468;2023-11-21T13:21:08;95618.81;;;15.38;49.17
37068;BME280;22982;42.848;25.468;2023-11-21T13:26:16;95591.81;;;15.15;47.93
37068;BME280;22982;42.848;25.468;2023-11-21T13:31:19;95610.16;;;15.26;48.57
37068;BME280;22982;42.848;25.468;2023-11-21T13:36:35;95595.41;;;15.04;49.76
37068;BME280;22982;42.848;25.468;2023-11-21T13:41:38;95583.28;;;14.82;50.10
37068;BME280;22982;42.848;25.468;2023-11-21T13:46:43;95598.00;;;14.74;50.45
37068;BME280;22982;42.848;25.468;2023-11-21T13:51:48;95620.81;;;14.54;51.33
37068;BME280;22982;42.848;25.468;2023-11-21T13:56:55;95616.28;;;14.35;51.64
37068;BME280;22982;42.848;25.468;2023-11-21T14:01:59;95619.84;;;14.34;52.22
37068;BME280;22982;42.848;25.468;2023-11-21T14:07:03;95608.00;;;14.19;53.12
37068;BME280;22982;42.848;25.468;2023-11-21T14:12:16;95614.09;;;14.20;52.96
37068;BME280;22982;42.848;25.468;2023-11-21T14:17:19;95635.19;;;14.20;58.15
37068;BME280;22982;42.848;25.468;2023-11-21T14:22:24;95648.44;;;13.87;63.46
37068;BME280;22982;42.848;25.468;2023-11-21T14:27:28;95633.94;;;13.39;65.58
37068;BME280;22982;42.848;25.468;2023-11-21T14:32:31;95634.78;;;13.40;67.44
37068;BME280;22982;42.848;25.468;2023-11-21T14:37:34;95627.16;;;13.37;63.19
37068;BME280;22982;42.848;25.468;2023-11-21T14:42:36;95642.22;;;13.35;69.15
37068;BME280;22982;42.848;25.468;2023-11-21T14:47:41;95625.72;;;13.21;67.10
37068;BME280;22982;42.848;25.468;2023-11-21T14:52:49;95613.38;;;13.22;69.44
37068;BME280;22982;42.848;25.468;2023-11-21T14:58:01;95612.31;;;13.25;73.73
37068;BME280;22982;42.848;25.468;2023-11-21T15:03:06;95611.75;;;13.10;78.22
37068;BME280;22982;42.848;25.468;2023-11-21T15:08:11;95625.69;;;12.89;84.18
37068;BME280;22982;42.848;25.468;2023-11-21T15:13:24;95636.59;;;12.73;87.59
37068;BME280;22982;42.848;25.468;2023-11-21T15:18:29;95644.25;;;12.42;94.11
37068;BME280;22982;42.848;25.468;2023-11-21T15:23:32;95643.41;;;12.53;97.36
37068;BME280;22982;42.848;25.468;2023-11-21T15:28:36;95631.69;;;12.46;99.00
37068;BME280;22982;42.848;25.468;2023-11-21T15:33:40;95629.91;;;12.47;99.65
37068;BME280;22982;42.848;25.468;2023-11-21T15:38:42;95616.41;;;12.17;100.00
37068;BME280;22982;42.848;25.468;2023-11-21T15:43:46;95620.56;;;11.97;100.00
37068;BME280;22982;42.848;25.468;2023-11-21T15:48:51;95628.13;;;11.78;100.00
37068;BME280;22982;42.848;25.468;2023-11-21T15:53:56;95628.09;;;11.66;100.00
37068;BME280;22982;42.848;25.468;2023-11-21T15:59:01;95632.16;;;11.35;100.00
37068;BME280;22982;42.848;25.468;2023-11-21T16:04:03;95623.31;;;11.01;100.00
37068;BME280;22982;42.848;25.468;2023-11-21T16:09:06;95620.72;;;10.88;100.00
37068;BME280;22982;42.848;25.468;2023-11-21T16:14:15;95629.47;;;10.76;100.00
37068;BME280;22982;42.848;25.468;2023-11-21T16:25:01;95635.59;;;10.50;100.00
37068;BME280;22982;42.848;25.468;2023-11-21T16:30:08;95651.34;;;10.25;100.00
37068;BME280;22982;42.848;25.468;2023-11-21T16:35:13;95606.69;;;10.01;100.00
37068;BME280;22982;42.848;25.468;2023-11-21T16:40:16;95645.66;;;9.80;100.00
37068;BME280;22982;42.848;25.468;2023-11-21T16:45:21;95627.00;;;9.84;100.00
37068;BME280;22982;42.848;25.468;2023-11-21T16:50:25;95628.38;;;9.90;100.00
37068;BME280;22982;42.848;25.468;2023-11-21T16:55:27;95632.25;;;9.97;100.00
37068;BME280;22982;42.848;25.468;2023-11-21T17:00:31;95611.88;;;9.36;100.00
37068;BME280;22982;42.848;25.468;2023-11-21T17:05:34;95625.88;;;9.35;100.00
37068;BME280;22982;42.848;25.468;2023-11-21T17:10:38;95642.78;;;9.57;100.00
37068;BME280;22982;42.848;25.468;2023-11-21T17:15:45;95632.63;;;9.52;100.00
37068;BME280;22982;42.848;25.468;2023-11-21T17:20:49;95634.28;;;9.41;100.00
37068;BME280;22982;42.848;25.468;2023-11-21T17:25:52;95634.47;;;9.37;100.00
37068;BME280;22982;42.848;25.468;2023-11-21T17:30:56;95580.88;;;8.90;100.00
37068;BME280;22982;42.848;25.468;2023-11-21T17:35:58;95613.94;;;8.91;100.00
37068;BME280;22982;42.848;25.468;2023-11-21T17:41:00;95615.84;;;8.75;100.00
37068;BME280;22982;42.848;25.468;2023-11-21T17:46:04;95635.59;;;8.93;100.00
37068;BME280;22982;42.848;25.468;2023-11-21T17:51:07;95611.31;;;8.91;100.00
37068;BME280;22982;42.848;25.468;2023-11-21T17:56:17;95634.31;;;8.86;100.00
37068;BME280;22982;42.848;25.468;2023-11-21T18:01:20;95628.47;;;8.95;100.00
37068;BME280;22982;42.848;25.468;2023-11-21T18:06:25;95627.31;;;8.72;100.00
37068;BME280;22982;42.848;25.468;2023-11-21T18:11:29;95612.97;;;8.92;100.00
37068;BME280;22982;42.848;25.468;2023-11-21T18:16:32;95622.78;;;8.61;100.00
37068;BME280;22982;42.848;25.468;2023-11-21T18:21:39;95619.81;;;8.53;100.00
37068;BME280;22982;42.848;25.468;2023-11-21T18:26:45;95601.06;;;8.47;100.00
37068;BME280;22982;42.848;25.468;2023-11-21T18:31:48;95622.25;;;8.56;100.00
37068;BME280;22982;42.848;25.468;2023-11-21T18:36:51;95604.66;;;8.73;100.00
37068;BME280;22982;42.848;25.468;2023-11-21T18:41:53;95607.47;;;8.41;100.00
37068;BME280;22982;42.848;25.468;2023-11-21T18:46:57;95573.72;;;8.52;100.00
37068;BME280;22982;42.848;25.468;2023-11-21T18:52:00;95579.66;;;8.40;100.00
37068;BME280;22982;42.848;25.468;2023-11-21T18:57:05;95551.91;;;8.24;100.00
37068;BME280;22982;42.848;25.468;2023-11-21T19:02:08;95584.47;;;8.48;100.00
37068;BME280;22982;42.848;25.468;2023-11-21T19:07:15;95563.06;;;8.55;100.00
37068;BME280;22982;42.848;25.468;2023-11-21T19:12:22;95556.50;;;8.21;100.00
37068;BME280;22982;42.848;25.468;2023-11-21T19:17:24;95578.38;;;8.33;100.00
37068;BME280;22982;42.848;25.468;2023-11-21T19:22:28;95557.59;;;8.31;100.00
37068;BME280;22982;42.848;25.468;2023-11-21T19:27:30;95540.16;;;8.32;100.00
37068;BME280;22982;42.848;25.468;2023-11-21T19:32:40;95528.44;;;7.96;100.00
37068;BME280;22982;42.848;25.468;2023-11-21T19:37:42;95539.22;;;8.18;100.00
37068;BME280;22982;42.848;25.468;2023-11-21T19:42:45;95521.91;;;8.17;100.00
37068;BME280;22982;42.848;25.468;2023-11-21T19:47:48;95525.25;;;8.19;100.00
37068;BME280;22982;42.848;25.468;2023-11-21T19:52:51;95488.63;;;8.07;100.00
37068;BME280;22982;42.848;25.468;2023-11-21T19:57:53;95523.41;;;8.07;100.00
37068;BME280;22982;42.848;25.468;2023-11-21T20:08:51;95509.03;;;8.14;100.00
37068;BME280;22982;42.848;25.468;2023-11-21T20:13:53;95496.69;;;8.16;100.00
37068;BME280;22982;42.848;25.468;2023-11-21T20:18:58;95491.88;;;8.52;100.00
37068;BME280;22982;42.848;25.468;2023-11-21T20:24:00;95460.44;;;10.07;100.00
37068;BME280;22982;42.848;25.468;2023-11-21T20:29:04;95445.81;;;11.24;100.00
37068;BME280;22982;42.848;25.468;2023-11-21T20:34:06;95435.06;;;11.27;100.00
37068;BME280;22982;42.848;25.468;2023-11-21T20:39:08;95460.47;;;10.44;100.00
37068;BME280;22982;42.848;25.468;2023-11-21T20:44:14;95482.84;;;10.11;100.00
37068;BME280;22982;42.848;25.468;2023-11-21T20:49:16;95484.59;;;9.87;100.00
37068;BME280;22982;42.848;25.468;2023-11-21T20:54:20;95471.41;;;9.63;100.00
37068;BME280;22982;42.848;25.468;2023-11-21T20:59:22;95442.13;;;9.19;100.00
37068;BME280;22982;42.848;25.468;2023-11-21T21:04:26;95456.66;;;9.23;100.00
37068;BME280;22982;42.848;25.468;2023-11-21T21:09:28;95468.28;;;9.19;100.00
37068;BME280;22982;42.848;25.468;2023-11-21T21:14:31;95463.47;;;9.26;100.00
37068;BME280;22982;42.848;25.468;2023-11-21T21:19:34;95470.28;;;9.28;100.00
37068;BME280;22982;42.848;25.468;2023-11-21T21:24:37;95449.53;;;8.99;100.00
37068;BME280;22982;42.848;25.468;2023-11-21T21:29:40;95465.66;;;8.53;100.00
37068;BME280;22982;42.848;25.468;2023-11-21T21:34:44;95479.38;;;8.57;100.00
37068;BME280;22982;42.848;25.468;2023-11-21T21:39:46;95476.75;;;8.57;100.00
37068;BME280;22982;42.848;25.468;2023-11-21T21:44:50;95489.94;;;8.41;100.00
37068;BME280;22982;42.848;25.468;2023-11-21T21:49:52;95482.31;;;8.23;100.00
37068;BME280;22982;42.848;25.468;2023-11-21T21:54:56;95476.63;;;8.31;100.00
37068;BME280;22982;42.848;25.468;2023-11-21T21:59:58;95479.53;;;8.27;100.00
37068;BME280;22982;42.848;25.468;2023-11-21T22:05:01;95474.66;;;8.08;100.00
37068;BME280;22982;42.848;25.468;2023-11-21T22:10:06;95476.56;;;8.18;100.00
37068;BME280;22982;42.848;25.468;2023-11-21T22:15:09;95488.69;;;8.19;100.00
37068;BME280;22982;42.848;25.468;2023-11-21T22:20:12;95485.50;;;8.29;100.00
37068;BME280;22982;42.848;25.468;2023-11-21T22:25:15;95457.84;;;8.12;100.00
37068;BME280;22982;42.848;25.468;2023-11-21T22:30:19;95480.13;;;8.17;100.00
37068;BME280;22982;42.848;25.468;2023-11-21T22:35:46;95512.94;;;8.21;100.00
37068;BME280;22982;42.848;25.468;2023-11-21T22:40:50;95496.00;;;7.85;100.00
37068;BME280;22982;42.848;25.468;2023-11-21T22:45:54;95504.72;;;7.72;100.00
37068;BME280;22982;42.848;25.468;2023-11-21T22:50:56;95486.06;;;7.78;100.00
37068;BME280;22982;42.848;25.468;2023-11-21T22:56:00;95479.94;;;7.50;100.00
37068;BME280;22982;42.848;25.468;2023-11-21T23:01:02;95520.44;;;7.84;100.00
37068;BME280;22982;42.848;25.468;2023-11-21T23:06:07;95505.91;;;7.66;100.00
37068;BME280;22982;42.848;25.468;2023-11-21T23:11:10;95487.00;;;7.48;100.00
37068;BME280;22982;42.848;25.468;2023-11-21T23:16:16;95492.75;;;7.39;100.00
37068;BME280;22982;42.848;25.468;2023-11-21T23:21:19;95495.84;;;7.31;100.00
37068;BME280;22982;42.848;25.468;2023-11-21T23:26:21;95463.06;;;7.27;100.00
37068;BME280;22982;42.848;25.468;2023-11-21T23:31:24;95506.09;;;7.63;100.00
37068;BME280;22982;42.848;25.468;2023-11-21T23:36:28;95494.38;;;7.56;100.00
37068;BME280;22982;42.848;25.468;2023-11-21T23:41:30;95527.91;;;7.76;100.00
37068;BME280;22982;42.848;25.468;2023-11-21T23:46:33;95513.94;;;7.48;100.00
37068;BME280;22982;42.848;25.468;2023-11-21T23:51:37;95483.91;;;7.13;100.00
37068;BME280;22982;42.848;25.468;2023-11-21T23:56:39;95516.22;;;7.24;100.00
